sensor_id;sensor_type;location;lat;lon;timestamp;P1;durP1;ratioP1;P2;durP2;ratioP2
55112;SDS011;41006;50.920;3.456;2023-05-07T00:00:16;29.05;;;26.35;;
55112;SDS011;41006;50.920;3.456;2023-05-07T00:00:48;27.67;;;25.30;;
55112;SDS011;41006;50.920;3.456;2023-05-07T00:01:19;25.90;;;23.92;;
55112;SDS011;41006;50.920;3.456;2023-05-07T00:01:50;26.48;;;24.30;;
55112;SDS011;41006;50.920;3.456;2023-05-07T00:02:23;26.92;;;24.58;;
55112;SDS011;41006;50.920;3.456;2023-05-07T00:02:53;25.90;;;24.20;;
55112;SDS011;41006;50.920;3.456;2023-05-07T00:03:24;26.23;;;24.23;;
55112;SDS011;41006;50.920;3.456;2023-05-07T00:03:57;24.55;;;23.10;;
55112;SDS011;41006;50.920;3.456;2023-05-07T00:04:27;26.67;;;24.02;;
55112;SDS011;41006;50.920;3.456;2023-05-07T00:04:58;26.67;;;24.80;;
55112;SDS011;41006;50.920;3.456;2023-05-07T00:05:28;26.73;;;24.63;;
55112;SDS011;41006;50.920;3.456;2023-05-07T00:06:03;27.00;;;25.02;;
55112;SDS011;41006;50.920;3.456;2023-05-07T00:06:36;26.33;;;24.48;;
55112;SDS011;41006;50.920;3.456;2023-05-07T00:07:07;26.30;;;24.55;;
55112;SDS011;41006;50.920;3.456;2023-05-07T00:07:39;27.67;;;25.77;;
55112;SDS011;41006;50.920;3.456;2023-05-07T00:08:10;26.75;;;24.80;;
55112;SDS011;41006;50.920;3.456;2023-05-07T00:08:43;26.15;;;24.52;;
55112;SDS011;41006;50.920;3.456;2023-05-07T00:09:16;27.65;;;25.52;;
55112;SDS011;41006;50.920;3.456;2023-05-07T00:09:50;27.77;;;25.70;;
55112;SDS011;41006;50.920;3.456;2023-05-07T00:10:24;26.48;;;24.85;;
55112;SDS011;41006;50.920;3.456;2023-05-07T00:10:57;27.48;;;25.52;;
55112;SDS011;41006;50.920;3.456;2023-05-07T00:11:34;27.98;;;25.88;;
55112;SDS011;41006;50.920;3.456;2023-05-07T00:12:10;27.60;;;25.17;;
55112;SDS011;41006;50.920;3.456;2023-05-07T00:12:40;27.25;;;25.27;;
55112;SDS011;41006;50.920;3.456;2023-05-07T00:13:13;27.27;;;25.27;;
55112;SDS011;41006;50.920;3.456;2023-05-07T00:13:46;27.00;;;25.23;;
55112;SDS011;41006;50.920;3.456;2023-05-07T00:14:17;28.58;;;25.88;;
55112;SDS011;41006;50.920;3.456;2023-05-07T00:14:50;27.27;;;25.42;;
55112;SDS011;41006;50.920;3.456;2023-05-07T00:15:23;28.55;;;26.33;;
55112;SDS011;41006;50.920;3.456;2023-05-07T00:15:53;26.77;;;25.08;;
55112;SDS011;41006;50.920;3.456;2023-05-07T00:16:28;27.42;;;25.45;;
55112;SDS011;41006;50.920;3.456;2023-05-07T00:16:58;29.15;;;26.25;;
55112;SDS011;41006;50.920;3.456;2023-05-07T00:17:33;28.85;;;26.40;;
55112;SDS011;41006;50.920;3.456;2023-05-07T00:18:06;28.30;;;25.98;;
55112;SDS011;41006;50.920;3.456;2023-05-07T00:18:41;29.17;;;27.20;;
55112;SDS011;41006;50.920;3.456;2023-05-07T00:19:12;26.95;;;25.05;;
55112;SDS011;41006;50.920;3.456;2023-05-07T00:19:44;27.73;;;25.58;;
55112;SDS011;41006;50.920;3.456;2023-05-07T00:20:17;29.40;;;26.73;;
55112;SDS011;41006;50.920;3.456;2023-05-07T00:20:48;27.50;;;25.55;;
55112;SDS011;41006;50.920;3.456;2023-05-07T00:21:20;27.35;;;25.55;;
55112;SDS011;41006;50.920;3.456;2023-05-07T00:21:51;27.17;;;25.50;;
55112;SDS011;41006;50.920;3.456;2023-05-07T00:22:23;29.27;;;26.95;;
55112;SDS011;41006;50.920;3.456;2023-05-07T00:22:53;27.73;;;25.70;;
55112;SDS011;41006;50.920;3.456;2023-05-07T00:23:24;27.77;;;25.95;;
55112;SDS011;41006;50.920;3.456;2023-05-07T00:24:00;27.75;;;25.48;;
55112;SDS011;41006;50.920;3.456;2023-05-07T00:24:30;27.25;;;25.30;;
55112;SDS011;41006;50.920;3.456;2023-05-07T00:25:03;29.08;;;26.58;;
55112;SDS011;41006;50.920;3.456;2023-05-07T00:25:34;28.27;;;26.35;;
55112;SDS011;41006;50.920;3.456;2023-05-07T00:26:06;29.42;;;27.17;;
55112;SDS011;41006;50.920;3.456;2023-05-07T00:26:39;28.38;;;26.17;;
55112;SDS011;41006;50.920;3.456;2023-05-07T00:27:09;27.55;;;25.40;;
55112;SDS011;41006;50.920;3.456;2023-05-07T00:27:42;29.23;;;26.98;;
55112;SDS011;41006;50.920;3.456;2023-05-07T00:28:15;27.77;;;25.92;;
55112;SDS011;41006;50.920;3.456;2023-05-07T00:28:45;28.05;;;25.70;;
55112;SDS011;41006;50.920;3.456;2023-05-07T00:29:15;27.88;;;26.10;;
55112;SDS011;41006;50.920;3.456;2023-05-07T00:29:46;28.77;;;26.40;;
55112;SDS011;41006;50.920;3.456;2023-05-07T00:30:18;27.92;;;26.00;;
55112;SDS011;41006;50.920;3.456;2023-05-07T00:30:54;28.20;;;26.30;;
55112;SDS011;41006;50.920;3.456;2023-05-07T00:31:26;29.38;;;27.48;;
55112;SDS011;41006;50.920;3.456;2023-05-07T00:31:57;30.17;;;27.65;;
55112;SDS011;41006;50.920;3.456;2023-05-07T00:32:27;29.13;;;27.08;;
55112;SDS011;41006;50.920;3.456;2023-05-07T00:32:57;28.33;;;26.23;;
55112;SDS011;41006;50.920;3.456;2023-05-07T00:33:31;28.65;;;26.50;;
55112;SDS011;41006;50.920;3.456;2023-05-07T00:34:03;29.38;;;27.48;;
55112;SDS011;41006;50.920;3.456;2023-05-07T00:34:34;29.33;;;27.23;;
55112;SDS011;41006;50.920;3.456;2023-05-07T00:35:07;29.63;;;27.52;;
55112;SDS011;41006;50.920;3.456;2023-05-07T00:35:40;29.45;;;27.63;;
55112;SDS011;41006;50.920;3.456;2023-05-07T00:36:15;30.98;;;28.27;;
55112;SDS011;41006;50.920;3.456;2023-05-07T00:36:45;29.25;;;26.95;;
55112;SDS011;41006;50.920;3.456;2023-05-07T00:37:18;30.30;;;28.17;;
55112;SDS011;41006;50.920;3.456;2023-05-07T00:37:50;30.17;;;28.05;;
55112;SDS011;41006;50.920;3.456;2023-05-07T00:38:21;29.40;;;27.20;;
55112;SDS011;41006;50.920;3.456;2023-05-07T00:38:51;30.10;;;28.00;;
55112;SDS011;41006;50.920;3.456;2023-05-07T00:39:26;30.38;;;28.38;;
55112;SDS011;41006;50.920;3.456;2023-05-07T00:39:57;29.83;;;27.95;;
55112;SDS011;41006;50.920;3.456;2023-05-07T00:40:29;29.98;;;27.42;;
55112;SDS011;41006;50.920;3.456;2023-05-07T00:40:59;29.42;;;27.42;;
55112;SDS011;41006;50.920;3.456;2023-05-07T00:41:30;30.15;;;28.10;;
55112;SDS011;41006;50.920;3.456;2023-05-07T00:42:03;30.15;;;28.08;;
55112;SDS011;41006;50.920;3.456;2023-05-07T00:42:33;29.40;;;27.58;;
55112;SDS011;41006;50.920;3.456;2023-05-07T00:43:04;29.52;;;27.35;;
55112;SDS011;41006;50.920;3.456;2023-05-07T00:43:34;29.45;;;27.45;;
55112;SDS011;41006;50.920;3.456;2023-05-07T00:44:08;29.08;;;26.88;;
55112;SDS011;41006;50.920;3.456;2023-05-07T00:44:38;28.33;;;26.10;;
55112;SDS011;41006;50.920;3.456;2023-05-07T00:45:09;30.00;;;27.85;;
55112;SDS011;41006;50.920;3.456;2023-05-07T00:45:42;31.20;;;29.05;;
55112;SDS011;41006;50.920;3.456;2023-05-07T00:46:15;30.30;;;28.05;;
55112;SDS011;41006;50.920;3.456;2023-05-07T00:46:48;30.55;;;28.40;;
55112;SDS011;41006;50.920;3.456;2023-05-07T00:47:24;30.92;;;28.52;;
55112;SDS011;41006;50.920;3.456;2023-05-07T00:47:58;31.48;;;29.42;;
55112;SDS011;41006;50.920;3.456;2023-05-07T00:48:34;30.17;;;28.15;;
55112;SDS011;41006;50.920;3.456;2023-05-07T00:49:04;31.70;;;29.27;;
55112;SDS011;41006;50.920;3.456;2023-05-07T00:49:37;31.25;;;29.17;;
55112;SDS011;41006;50.920;3.456;2023-05-07T00:50:11;31.38;;;29.45;;
55112;SDS011;41006;50.920;3.456;2023-05-07T00:50:42;31.20;;;29.17;;
55112;SDS011;41006;50.920;3.456;2023-05-07T00:51:13;31.33;;;29.52;;
55112;SDS011;41006;50.920;3.456;2023-05-07T00:51:44;31.13;;;28.80;;
55112;SDS011;41006;50.920;3.456;2023-05-07T00:52:17;32.33;;;29.75;;
55112;SDS011;41006;50.920;3.456;2023-05-07T00:52:52;31.13;;;29.42;;
55112;SDS011;41006;50.920;3.456;2023-05-07T00:53:25;32.55;;;30.10;;
55112;SDS011;41006;50.920;3.456;2023-05-07T00:54:03;31.15;;;29.15;;
55112;SDS011;41006;50.920;3.456;2023-05-07T00:54:34;32.35;;;30.45;;
55112;SDS011;41006;50.920;3.456;2023-05-07T00:55:05;32.42;;;30.33;;
55112;SDS011;41006;50.920;3.456;2023-05-07T00:55:38;32.70;;;30.80;;
55112;SDS011;41006;50.920;3.456;2023-05-07T00:56:14;32.83;;;30.73;;
55112;SDS011;41006;50.920;3.456;2023-05-07T00:56:47;31.10;;;29.27;;
55112;SDS011;41006;50.920;3.456;2023-05-07T00:57:21;33.67;;;31.55;;
55112;SDS011;41006;50.920;3.456;2023-05-07T00:57:52;31.67;;;29.70;;
55112;SDS011;41006;50.920;3.456;2023-05-07T00:58:28;32.63;;;30.52;;
55112;SDS011;41006;50.920;3.456;2023-05-07T00:59:01;31.70;;;29.80;;
55112;SDS011;41006;50.920;3.456;2023-05-07T00:59:35;33.05;;;30.88;;
55112;SDS011;41006;50.920;3.456;2023-05-07T01:00:11;32.63;;;30.13;;
55112;SDS011;41006;50.920;3.456;2023-05-07T01:00:42;32.35;;;29.92;;
55112;SDS011;41006;50.920;3.456;2023-05-07T01:01:15;32.05;;;30.23;;
55112;SDS011;41006;50.920;3.456;2023-05-07T01:01:50;32.85;;;30.33;;
55112;SDS011;41006;50.920;3.456;2023-05-07T01:02:22;31.15;;;28.90;;
55112;SDS011;41006;50.920;3.456;2023-05-07T01:02:52;30.52;;;28.33;;
55112;SDS011;41006;50.920;3.456;2023-05-07T01:03:23;31.42;;;29.27;;
55112;SDS011;41006;50.920;3.456;2023-05-07T01:03:53;30.08;;;27.80;;
55112;SDS011;41006;50.920;3.456;2023-05-07T01:04:27;31.38;;;28.88;;
55112;SDS011;41006;50.920;3.456;2023-05-07T01:05:00;29.70;;;27.90;;
55112;SDS011;41006;50.920;3.456;2023-05-07T01:05:35;30.50;;;28.58;;
55112;SDS011;41006;50.920;3.456;2023-05-07T01:06:12;30.42;;;28.50;;
55112;SDS011;41006;50.920;3.456;2023-05-07T01:06:46;29.42;;;27.48;;
55112;SDS011;41006;50.920;3.456;2023-05-07T01:07:20;29.27;;;27.42;;
55112;SDS011;41006;50.920;3.456;2023-05-07T01:07:51;29.27;;;27.63;;
55112;SDS011;41006;50.920;3.456;2023-05-07T01:08:24;30.77;;;28.52;;
55112;SDS011;41006;50.920;3.456;2023-05-07T01:08:59;30.30;;;27.83;;
55112;SDS011;41006;50.920;3.456;2023-05-07T01:09:34;29.58;;;27.80;;
55112;SDS011;41006;50.920;3.456;2023-05-07T01:10:06;29.45;;;27.65;;
55112;SDS011;41006;50.920;3.456;2023-05-07T01:10:38;29.95;;;27.73;;
55112;SDS011;41006;50.920;3.456;2023-05-07T01:11:12;30.55;;;28.52;;
55112;SDS011;41006;50.920;3.456;2023-05-07T01:11:44;30.88;;;28.80;;
55112;SDS011;41006;50.920;3.456;2023-05-07T01:12:14;30.00;;;28.20;;
55112;SDS011;41006;50.920;3.456;2023-05-07T01:12:45;31.33;;;29.13;;
55112;SDS011;41006;50.920;3.456;2023-05-07T01:13:19;30.77;;;28.55;;
55112;SDS011;41006;50.920;3.456;2023-05-07T01:13:53;29.60;;;27.60;;
55112;SDS011;41006;50.920;3.456;2023-05-07T01:14:30;31.67;;;29.33;;
55112;SDS011;41006;50.920;3.456;2023-05-07T01:15:05;30.92;;;28.77;;
55112;SDS011;41006;50.920;3.456;2023-05-07T01:15:42;30.95;;;28.90;;
55112;SDS011;41006;50.920;3.456;2023-05-07T01:16:13;30.20;;;28.17;;
55112;SDS011;41006;50.920;3.456;2023-05-07T01:16:43;30.92;;;28.98;;
55112;SDS011;41006;50.920;3.456;2023-05-07T01:17:17;32.25;;;29.70;;
55112;SDS011;41006;50.920;3.456;2023-05-07T01:17:49;31.08;;;29.10;;
55112;SDS011;41006;50.920;3.456;2023-05-07T01:18:22;31.50;;;29.05;;
55112;SDS011;41006;50.920;3.456;2023-05-07T01:18:53;31.45;;;29.55;;
55112;SDS011;41006;50.920;3.456;2023-05-07T01:19:23;31.13;;;28.95;;
55112;SDS011;41006;50.920;3.456;2023-05-07T01:19:54;30.88;;;29.00;;
55112;SDS011;41006;50.920;3.456;2023-05-07T01:20:27;30.95;;;29.10;;
55112;SDS011;41006;50.920;3.456;2023-05-07T01:20:58;30.98;;;29.08;;
55112;SDS011;41006;50.920;3.456;2023-05-07T01:21:32;31.33;;;28.90;;
55112;SDS011;41006;50.920;3.456;2023-05-07T01:22:10;31.23;;;29.25;;
55112;SDS011;41006;50.920;3.456;2023-05-07T01:22:44;32.30;;;29.73;;
55112;SDS011;41006;50.920;3.456;2023-05-07T01:23:15;31.05;;;29.00;;
55112;SDS011;41006;50.920;3.456;2023-05-07T01:23:48;31.83;;;29.48;;
55112;SDS011;41006;50.920;3.456;2023-05-07T01:24:22;31.88;;;29.63;;
55112;SDS011;41006;50.920;3.456;2023-05-07T01:24:52;31.38;;;29.33;;
55112;SDS011;41006;50.920;3.456;2023-05-07T01:25:28;30.27;;;28.48;;
55112;SDS011;41006;50.920;3.456;2023-05-07T01:25:59;32.35;;;29.80;;
55112;SDS011;41006;50.920;3.456;2023-05-07T01:26:30;31.63;;;29.25;;
55112;SDS011;41006;50.920;3.456;2023-05-07T01:27:03;32.55;;;30.13;;
55112;SDS011;41006;50.920;3.456;2023-05-07T01:27:36;31.35;;;29.35;;
55112;SDS011;41006;50.920;3.456;2023-05-07T01:28:14;31.58;;;29.25;;
55112;SDS011;41006;50.920;3.456;2023-05-07T01:28:44;32.00;;;29.95;;
55112;SDS011;41006;50.920;3.456;2023-05-07T01:29:20;31.58;;;29.55;;
55112;SDS011;41006;50.920;3.456;2023-05-07T01:29:50;30.98;;;29.15;;
55112;SDS011;41006;50.920;3.456;2023-05-07T01:30:23;32.10;;;30.05;;
55112;SDS011;41006;50.920;3.456;2023-05-07T01:30:55;31.85;;;29.50;;
55112;SDS011;41006;50.920;3.456;2023-05-07T01:31:36;30.77;;;28.73;;
55112;SDS011;41006;50.920;3.456;2023-05-07T01:32:07;31.50;;;29.48;;
55112;SDS011;41006;50.920;3.456;2023-05-07T01:32:43;31.25;;;28.92;;
55112;SDS011;41006;50.920;3.456;2023-05-07T01:33:21;30.90;;;28.92;;
55112;SDS011;41006;50.920;3.456;2023-05-07T01:33:55;32.42;;;30.23;;
55112;SDS011;41006;50.920;3.456;2023-05-07T01:34:28;33.20;;;30.67;;
55112;SDS011;41006;50.920;3.456;2023-05-07T01:35:01;32.97;;;30.75;;
55112;SDS011;41006;50.920;3.456;2023-05-07T01:35:35;32.17;;;29.98;;
55112;SDS011;41006;50.920;3.456;2023-05-07T01:36:10;30.95;;;29.02;;
55112;SDS011;41006;50.920;3.456;2023-05-07T01:36:42;31.52;;;29.45;;
55112;SDS011;41006;50.920;3.456;2023-05-07T01:37:15;30.45;;;28.75;;
55112;SDS011;41006;50.920;3.456;2023-05-07T01:37:46;32.08;;;29.67;;
55112;SDS011;41006;50.920;3.456;2023-05-07T01:38:20;30.70;;;28.65;;
55112;SDS011;41006;50.920;3.456;2023-05-07T01:38:52;30.70;;;28.45;;
55112;SDS011;41006;50.920;3.456;2023-05-07T01:39:28;31.95;;;29.63;;
55112;SDS011;41006;50.920;3.456;2023-05-07T01:40:00;32.42;;;29.80;;
55112;SDS011;41006;50.920;3.456;2023-05-07T01:40:32;30.25;;;28.38;;
55112;SDS011;41006;50.920;3.456;2023-05-07T01:41:06;30.48;;;28.50;;
55112;SDS011;41006;50.920;3.456;2023-05-07T01:41:38;31.35;;;28.85;;
55112;SDS011;41006;50.920;3.456;2023-05-07T01:42:11;30.70;;;28.58;;
55112;SDS011;41006;50.920;3.456;2023-05-07T01:42:47;31.35;;;29.45;;
55112;SDS011;41006;50.920;3.456;2023-05-07T01:43:18;29.75;;;27.95;;
55112;SDS011;41006;50.920;3.456;2023-05-07T01:43:52;32.55;;;30.35;;
55112;SDS011;41006;50.920;3.456;2023-05-07T01:44:24;32.17;;;29.73;;
55112;SDS011;41006;50.920;3.456;2023-05-07T01:44:58;31.60;;;29.38;;
55112;SDS011;41006;50.920;3.456;2023-05-07T01:45:33;32.55;;;30.20;;
55112;SDS011;41006;50.920;3.456;2023-05-07T01:46:04;31.83;;;29.52;;
55112;SDS011;41006;50.920;3.456;2023-05-07T01:46:37;30.65;;;28.45;;
55112;SDS011;41006;50.920;3.456;2023-05-07T01:47:10;30.23;;;28.33;;
55112;SDS011;41006;50.920;3.456;2023-05-07T01:47:43;31.42;;;29.60;;
55112;SDS011;41006;50.920;3.456;2023-05-07T01:48:17;33.38;;;30.80;;
55112;SDS011;41006;50.920;3.456;2023-05-07T01:48:48;31.63;;;29.80;;
55112;SDS011;41006;50.920;3.456;2023-05-07T01:49:20;31.52;;;29.23;;
55112;SDS011;41006;50.920;3.456;2023-05-07T01:49:54;31.15;;;29.17;;
55112;SDS011;41006;50.920;3.456;2023-05-07T01:50:31;31.80;;;29.45;;
55112;SDS011;41006;50.920;3.456;2023-05-07T01:51:02;31.92;;;29.95;;
55112;SDS011;41006;50.920;3.456;2023-05-07T01:51:33;30.83;;;28.83;;
55112;SDS011;41006;50.920;3.456;2023-05-07T01:52:07;30.70;;;28.58;;
55112;SDS011;41006;50.920;3.456;2023-05-07T01:52:42;29.67;;;27.77;;
55112;SDS011;41006;50.920;3.456;2023-05-07T01:53:15;30.98;;;28.92;;
55112;SDS011;41006;50.920;3.456;2023-05-07T01:53:48;32.10;;;30.15;;
55112;SDS011;41006;50.920;3.456;2023-05-07T01:54:24;30.70;;;28.77;;
55112;SDS011;41006;50.920;3.456;2023-05-07T01:54:59;32.20;;;29.73;;
55112;SDS011;41006;50.920;3.456;2023-05-07T01:55:32;31.58;;;29.13;;
55112;SDS011;41006;50.920;3.456;2023-05-07T01:56:06;29.67;;;27.70;;
55112;SDS011;41006;50.920;3.456;2023-05-07T01:56:39;31.13;;;28.67;;
55112;SDS011;41006;50.920;3.456;2023-05-07T01:57:10;30.77;;;28.60;;
55112;SDS011;41006;50.920;3.456;2023-05-07T01:57:43;30.95;;;28.55;;
55112;SDS011;41006;50.920;3.456;2023-05-07T01:58:13;29.60;;;27.50;;
55112;SDS011;41006;50.920;3.456;2023-05-07T01:58:46;31.17;;;28.77;;
55112;SDS011;41006;50.920;3.456;2023-05-07T01:59:17;30.13;;;28.23;;
55112;SDS011;41006;50.920;3.456;2023-05-07T01:59:47;29.33;;;27.35;;
55112;SDS011;41006;50.920;3.456;2023-05-07T02:00:20;28.70;;;26.80;;
55112;SDS011;41006;50.920;3.456;2023-05-07T02:00:56;30.60;;;28.55;;
55112;SDS011;41006;50.920;3.456;2023-05-07T02:01:26;30.38;;;28.17;;
55112;SDS011;41006;50.920;3.456;2023-05-07T02:01:59;32.05;;;29.50;;
55112;SDS011;41006;50.920;3.456;2023-05-07T02:02:29;31.20;;;29.13;;
55112;SDS011;41006;50.920;3.456;2023-05-07T02:03:04;31.30;;;28.95;;
55112;SDS011;41006;50.920;3.456;2023-05-07T02:03:38;29.50;;;27.63;;
55112;SDS011;41006;50.920;3.456;2023-05-07T02:04:13;31.63;;;29.73;;
55112;SDS011;41006;50.920;3.456;2023-05-07T02:04:43;32.17;;;29.98;;
55112;SDS011;41006;50.920;3.456;2023-05-07T02:05:18;31.48;;;29.17;;
55112;SDS011;41006;50.920;3.456;2023-05-07T02:05:49;30.60;;;28.67;;
55112;SDS011;41006;50.920;3.456;2023-05-07T02:06:19;32.53;;;30.27;;
55112;SDS011;41006;50.920;3.456;2023-05-07T02:06:55;31.38;;;29.15;;
55112;SDS011;41006;50.920;3.456;2023-05-07T02:07:25;31.10;;;28.70;;
55112;SDS011;41006;50.920;3.456;2023-05-07T02:07:58;30.80;;;28.80;;
55112;SDS011;41006;50.920;3.456;2023-05-07T02:08:31;31.08;;;29.17;;
55112;SDS011;41006;50.920;3.456;2023-05-07T02:09:06;30.67;;;28.65;;
55112;SDS011;41006;50.920;3.456;2023-05-07T02:09:41;32.13;;;29.70;;
55112;SDS011;41006;50.920;3.456;2023-05-07T02:10:11;30.95;;;28.63;;
55112;SDS011;41006;50.920;3.456;2023-05-07T02:10:41;31.00;;;28.90;;
55112;SDS011;41006;50.920;3.456;2023-05-07T02:11:16;30.88;;;28.45;;
55112;SDS011;41006;50.920;3.456;2023-05-07T02:11:47;30.23;;;28.08;;
55112;SDS011;41006;50.920;3.456;2023-05-07T02:12:19;29.30;;;27.50;;
55112;SDS011;41006;50.920;3.456;2023-05-07T02:12:52;31.08;;;28.80;;
55112;SDS011;41006;50.920;3.456;2023-05-07T02:13:26;30.02;;;28.33;;
55112;SDS011;41006;50.920;3.456;2023-05-07T02:13:58;31.15;;;28.67;;
55112;SDS011;41006;50.920;3.456;2023-05-07T02:14:29;31.67;;;29.23;;
55112;SDS011;41006;50.920;3.456;2023-05-07T02:15:01;30.88;;;28.98;;
55112;SDS011;41006;50.920;3.456;2023-05-07T02:15:34;31.50;;;29.35;;
55112;SDS011;41006;50.920;3.456;2023-05-07T02:16:05;30.70;;;28.67;;
55112;SDS011;41006;50.920;3.456;2023-05-07T02:16:38;32.15;;;30.25;;
55112;SDS011;41006;50.920;3.456;2023-05-07T02:17:08;31.80;;;29.70;;
55112;SDS011;41006;50.920;3.456;2023-05-07T02:18:00;32.20;;;29.70;;
55112;SDS011;41006;50.920;3.456;2023-05-07T02:18:30;31.08;;;28.67;;
55112;SDS011;41006;50.920;3.456;2023-05-07T02:19:04;31.20;;;28.85;;
55112;SDS011;41006;50.920;3.456;2023-05-07T02:19:35;31.52;;;29.05;;
55112;SDS011;41006;50.920;3.456;2023-05-07T02:20:05;31.25;;;29.20;;
55112;SDS011;41006;50.920;3.456;2023-05-07T02:20:43;29.50;;;27.67;;
55112;SDS011;41006;50.920;3.456;2023-05-07T02:21:13;31.42;;;29.33;;
55112;SDS011;41006;50.920;3.456;2023-05-07T02:21:48;30.50;;;28.60;;
55112;SDS011;41006;50.920;3.456;2023-05-07T02:22:21;30.25;;;28.25;;
55112;SDS011;41006;50.920;3.456;2023-05-07T02:22:56;30.23;;;28.13;;
55112;SDS011;41006;50.920;3.456;2023-05-07T02:23:26;30.05;;;28.05;;
55112;SDS011;41006;50.920;3.456;2023-05-07T02:24:02;30.05;;;28.23;;
55112;SDS011;41006;50.920;3.456;2023-05-07T02:24:35;32.85;;;30.48;;
55112;SDS011;41006;50.920;3.456;2023-05-07T02:25:05;30.83;;;28.90;;
55112;SDS011;41006;50.920;3.456;2023-05-07T02:25:36;32.15;;;30.20;;
55112;SDS011;41006;50.920;3.456;2023-05-07T02:26:06;30.30;;;28.48;;
55112;SDS011;41006;50.920;3.456;2023-05-07T02:26:36;31.73;;;29.30;;
55112;SDS011;41006;50.920;3.456;2023-05-07T02:27:11;30.67;;;28.60;;
55112;SDS011;41006;50.920;3.456;2023-05-07T02:27:42;30.52;;;28.38;;
55112;SDS011;41006;50.920;3.456;2023-05-07T02:28:14;30.02;;;28.27;;
55112;SDS011;41006;50.920;3.456;2023-05-07T02:28:45;30.95;;;28.90;;
55112;SDS011;41006;50.920;3.456;2023-05-07T02:29:15;31.45;;;28.67;;
55112;SDS011;41006;50.920;3.456;2023-05-07T02:29:48;30.20;;;28.35;;
55112;SDS011;41006;50.920;3.456;2023-05-07T02:30:18;30.88;;;28.42;;
55112;SDS011;41006;50.920;3.456;2023-05-07T02:30:52;30.38;;;28.23;;
55112;SDS011;41006;50.920;3.456;2023-05-07T02:31:22;30.52;;;28.40;;
55112;SDS011;41006;50.920;3.456;2023-05-07T02:31:53;30.52;;;28.15;;
55112;SDS011;41006;50.920;3.456;2023-05-07T02:32:23;30.67;;;28.20;;
55112;SDS011;41006;50.920;3.456;2023-05-07T02:32:53;30.20;;;27.80;;
55112;SDS011;41006;50.920;3.456;2023-05-07T02:33:26;29.23;;;27.33;;
55112;SDS011;41006;50.920;3.456;2023-05-07T02:33:59;29.30;;;27.25;;
55112;SDS011;41006;50.920;3.456;2023-05-07T02:34:32;29.30;;;27.17;;
55112;SDS011;41006;50.920;3.456;2023-05-07T02:35:03;28.73;;;26.70;;
55112;SDS011;41006;50.920;3.456;2023-05-07T02:35:35;29.55;;;27.55;;
55112;SDS011;41006;50.920;3.456;2023-05-07T02:36:06;30.95;;;28.38;;
55112;SDS011;41006;50.920;3.456;2023-05-07T02:36:41;29.23;;;27.33;;
55112;SDS011;41006;50.920;3.456;2023-05-07T02:37:14;29.67;;;27.67;;
55112;SDS011;41006;50.920;3.456;2023-05-07T02:37:45;31.35;;;29.02;;
55112;SDS011;41006;50.920;3.456;2023-05-07T02:38:18;29.15;;;27.27;;
55112;SDS011;41006;50.920;3.456;2023-05-07T02:38:52;30.38;;;27.88;;
55112;SDS011;41006;50.920;3.456;2023-05-07T02:39:26;28.80;;;26.90;;
55112;SDS011;41006;50.920;3.456;2023-05-07T02:40:01;28.60;;;26.88;;
55112;SDS011;41006;50.920;3.456;2023-05-07T02:40:37;29.60;;;27.58;;
55112;SDS011;41006;50.920;3.456;2023-05-07T02:41:15;29.00;;;26.98;;
55112;SDS011;41006;50.920;3.456;2023-05-07T02:41:47;30.27;;;28.13;;
55112;SDS011;41006;50.920;3.456;2023-05-07T02:42:21;30.60;;;28.10;;
55112;SDS011;41006;50.920;3.456;2023-05-07T02:42:56;30.58;;;28.48;;
55112;SDS011;41006;50.920;3.456;2023-05-07T02:43:26;30.77;;;28.33;;
55112;SDS011;41006;50.920;3.456;2023-05-07T02:43:57;30.27;;;28.20;;
55112;SDS011;41006;50.920;3.456;2023-05-07T02:44:27;29.35;;;27.42;;
55112;SDS011;41006;50.920;3.456;2023-05-07T02:45:01;29.98;;;28.17;;
55112;SDS011;41006;50.920;3.456;2023-05-07T02:45:32;29.50;;;27.77;;
55112;SDS011;41006;50.920;3.456;2023-05-07T02:46:08;29.63;;;27.75;;
55112;SDS011;41006;50.920;3.456;2023-05-07T02:46:43;29.35;;;27.67;;
55112;SDS011;41006;50.920;3.456;2023-05-07T02:47:16;29.25;;;27.25;;
55112;SDS011;41006;50.920;3.456;2023-05-07T02:47:46;29.38;;;27.25;;
55112;SDS011;41006;50.920;3.456;2023-05-07T02:48:22;27.75;;;26.27;;
55112;SDS011;41006;50.920;3.456;2023-05-07T02:48:57;29.33;;;27.40;;
55112;SDS011;41006;50.920;3.456;2023-05-07T02:49:30;29.17;;;27.00;;
55112;SDS011;41006;50.920;3.456;2023-05-07T02:50:03;30.00;;;27.83;;
55112;SDS011;41006;50.920;3.456;2023-05-07T02:50:37;28.85;;;26.60;;
55112;SDS011;41006;50.920;3.456;2023-05-07T02:51:10;30.15;;;27.88;;
55112;SDS011;41006;50.920;3.456;2023-05-07T02:51:42;29.77;;;27.77;;
55112;SDS011;41006;50.920;3.456;2023-05-07T02:52:13;30.05;;;28.05;;
55112;SDS011;41006;50.920;3.456;2023-05-07T02:52:46;29.33;;;27.38;;
55112;SDS011;41006;50.920;3.456;2023-05-07T02:53:23;29.30;;;27.38;;
55112;SDS011;41006;50.920;3.456;2023-05-07T02:53:56;29.85;;;27.67;;
55112;SDS011;41006;50.920;3.456;2023-05-07T02:54:26;28.70;;;26.75;;
55112;SDS011;41006;50.920;3.456;2023-05-07T02:54:59;31.50;;;28.95;;
55112;SDS011;41006;50.920;3.456;2023-05-07T02:55:32;29.33;;;27.15;;
55112;SDS011;41006;50.920;3.456;2023-05-07T02:56:05;29.15;;;27.30;;
55112;SDS011;41006;50.920;3.456;2023-05-07T02:56:36;29.58;;;27.55;;
55112;SDS011;41006;50.920;3.456;2023-05-07T02:57:06;29.45;;;27.27;;
55112;SDS011;41006;50.920;3.456;2023-05-07T02:57:40;29.83;;;27.60;;
55112;SDS011;41006;50.920;3.456;2023-05-07T02:58:12;29.45;;;27.30;;
55112;SDS011;41006;50.920;3.456;2023-05-07T02:58:45;29.45;;;27.45;;
55112;SDS011;41006;50.920;3.456;2023-05-07T02:59:15;28.58;;;26.60;;
55112;SDS011;41006;50.920;3.456;2023-05-07T02:59:46;29.60;;;27.13;;
55112;SDS011;41006;50.920;3.456;2023-05-07T03:00:17;31.40;;;28.85;;
55112;SDS011;41006;50.920;3.456;2023-05-07T03:00:51;28.13;;;26.42;;
55112;SDS011;41006;50.920;3.456;2023-05-07T03:01:21;29.38;;;27.05;;
55112;SDS011;41006;50.920;3.456;2023-05-07T03:01:54;29.38;;;27.00;;
55112;SDS011;41006;50.920;3.456;2023-05-07T03:02:27;29.92;;;27.75;;
55112;SDS011;41006;50.920;3.456;2023-05-07T03:02:59;29.83;;;27.40;;
55112;SDS011;41006;50.920;3.456;2023-05-07T03:03:30;28.83;;;26.80;;
55112;SDS011;41006;50.920;3.456;2023-05-07T03:04:00;29.38;;;27.17;;
55112;SDS011;41006;50.920;3.456;2023-05-07T03:04:30;29.42;;;27.10;;
55112;SDS011;41006;50.920;3.456;2023-05-07T03:05:04;29.25;;;27.33;;
55112;SDS011;41006;50.920;3.456;2023-05-07T03:05:37;28.52;;;26.40;;
55112;SDS011;41006;50.920;3.456;2023-05-07T03:06:08;28.48;;;26.45;;
55112;SDS011;41006;50.920;3.456;2023-05-07T03:06:38;28.17;;;26.17;;
55112;SDS011;41006;50.920;3.456;2023-05-07T03:07:08;28.23;;;26.40;;
55112;SDS011;41006;50.920;3.456;2023-05-07T03:07:39;29.05;;;26.80;;
55112;SDS011;41006;50.920;3.456;2023-05-07T03:08:09;28.95;;;26.95;;
55112;SDS011;41006;50.920;3.456;2023-05-07T03:08:42;29.50;;;27.23;;
55112;SDS011;41006;50.920;3.456;2023-05-07T03:09:13;29.50;;;27.50;;
55112;SDS011;41006;50.920;3.456;2023-05-07T03:09:43;29.50;;;27.35;;
55112;SDS011;41006;50.920;3.456;2023-05-07T03:10:13;28.45;;;26.45;;
55112;SDS011;41006;50.920;3.456;2023-05-07T03:10:47;27.73;;;26.00;;